createdAt,value
2017-12-08T00:03:56.500Z,5.31
2017-12-08T00:10:00.008Z,5.32
2017-12-08T00:16:03.546Z,5.26
2017-12-08T00:22:07.200Z,5.30
2017-12-08T00:28:10.961Z,5.35
2017-12-08T00:34:14.461Z,5.36
2017-12-08T00:40:17.958Z,5.34
2017-12-08T00:46:21.818Z,5.34
2017-12-08T00:52:25.974Z,5.32
2017-12-08T00:58:29.816Z,5.29
2017-12-08T01:04:33.507Z,5.28
2017-12-08T01:10:37.003Z,5.28
2017-12-08T01:16:41.286Z,5.26
2017-12-08T01:22:45.720Z,5.28
2017-12-08T01:28:49.465Z,5.33
2017-12-08T01:34:53.612Z,5.41
2017-12-08T01:40:57.696Z,5.46
2017-12-08T01:47:01.526Z,5.46
2017-12-08T01:53:05.087Z,5.43
2017-12-08T01:59:09.056Z,5.47
2017-12-08T02:05:12.775Z,5.48
2017-12-08T02:11:16.347Z,5.44
2017-12-08T02:17:20.018Z,5.44
2017-12-08T02:23:24.604Z,5.46
2017-12-08T02:29:28.521Z,5.54
2017-12-08T02:35:32.044Z,5.64
2017-12-08T02:41:35.740Z,5.70
2017-12-08T02:47:39.277Z,5.41
2017-12-08T02:53:42.806Z,5.30
2017-12-08T02:59:46.623Z,5.24
2017-12-08T03:05:51.044Z,5.15
2017-12-08T03:11:54.635Z,4.93
2017-12-08T03:17:58.295Z,4.79
2017-12-08T03:24:02.634Z,4.76
2017-12-08T03:30:06.167Z,4.71
2017-12-08T03:36:09.732Z,4.74
2017-12-08T03:42:13.289Z,4.86
2017-12-08T03:48:17.228Z,5.12
2017-12-08T03:54:20.851Z,5.32
2017-12-08T04:00:25.024Z,5.36
2017-12-08T04:06:28.635Z,5.44
2017-12-08T04:12:32.222Z,5.44
2017-12-08T04:18:36.061Z,5.50
2017-12-08T04:24:39.606Z,5.30
2017-12-08T04:30:43.183Z,5.17
2017-12-08T04:36:46.716Z,5.23
2017-12-08T04:42:50.510Z,5.19
2017-12-08T04:48:54.496Z,5.09
2017-12-08T04:54:58.076Z,5.14
2017-12-08T05:01:02.395Z,5.23
2017-12-08T05:07:06.103Z,5.19
2017-12-08T05:13:10.387Z,5.08
2017-12-08T05:19:14.004Z,4.80
2017-12-08T05:25:17.764Z,4.69
2017-12-08T05:31:21.403Z,4.46
2017-12-08T05:37:25.547Z,4.51
2017-12-08T05:43:29.186Z,4.60
2017-12-08T05:49:33.051Z,3.00
2017-12-08T05:55:37.582Z,2.45
2017-12-08T06:01:41.100Z,2.36
2017-12-08T06:07:44.616Z,2.44
2017-12-08T06:13:48.950Z,2.52
2017-12-08T06:19:52.635Z,2.66
2017-12-08T06:25:56.260Z,2.74
2017-12-08T06:32:00.185Z,2.90
2017-12-08T06:38:03.735Z,2.82
2017-12-08T06:44:08.095Z,2.62
2017-12-08T06:50:12.730Z,2.47
2017-12-08T06:56:16.259Z,2.53
2017-12-08T07:02:19.872Z,2.64
2017-12-08T07:08:23.464Z,2.77
2017-12-08T07:14:27.022Z,2.86
2017-12-08T07:20:30.580Z,2.77
2017-12-08T07:26:34.295Z,2.51
2017-12-08T07:32:37.810Z,2.41
2017-12-08T07:38:41.468Z,2.42
2017-12-08T07:44:44.989Z,2.47
2017-12-08T07:50:49.262Z,2.53
2017-12-08T07:56:53.688Z,2.69
2017-12-08T08:02:57.775Z,2.85
2017-12-08T08:09:01.296Z,2.75
2017-12-08T08:15:04.840Z,2.77
2017-12-08T08:21:08.395Z,2.74
2017-12-08T08:27:12.272Z,2.67
2017-12-08T08:33:16.169Z,2.72
2017-12-08T08:39:19.703Z,2.71
2017-12-08T08:45:24.610Z,2.86
2017-12-08T08:51:28.117Z,2.83
2017-12-08T08:57:31.792Z,3.01
2017-12-08T09:03:35.317Z,3.18
2017-12-08T09:09:38.851Z,3.27
2017-12-08T09:15:43.134Z,3.36
2017-12-08T09:21:47.437Z,3.42
2017-12-08T09:27:51.070Z,3.49
2017-12-08T09:33:54.613Z,3.58
2017-12-08T09:39:58.912Z,3.65
2017-12-08T09:46:02.418Z,3.70
2017-12-08T09:52:06.054Z,3.66
2017-12-08T09:58:09.609Z,3.77
2017-12-08T10:04:13.155Z,3.73
2017-12-08T10:10:16.664Z,3.73
2017-12-08T10:16:21.156Z,3.81
2017-12-08T10:22:25.183Z,3.86
2017-12-08T10:28:28.859Z,3.80
2017-12-08T10:34:33.144Z,3.79
2017-12-08T10:40:37.632Z,3.85
2017-12-08T10:46:41.204Z,3.91
2017-12-08T10:52:44.707Z,3.98
2017-12-08T10:58:48.243Z,4.12
2017-12-08T11:04:52.733Z,4.23
2017-12-08T11:10:56.351Z,4.15
2017-12-08T11:16:59.869Z,4.27
2017-12-08T11:23:04.484Z,4.57
2017-12-08T11:29:08.031Z,4.58
2017-12-08T11:35:11.550Z,4.54
2017-12-08T11:41:15.883Z,4.43
2017-12-08T11:47:19.424Z,4.27
2017-12-08T11:53:22.956Z,4.12
2017-12-08T11:59:26.484Z,4.22
2017-12-08T12:05:30.793Z,4.81
2017-12-08T12:11:34.311Z,4.81
2017-12-08T12:17:38.908Z,4.54
2017-12-08T12:23:43.209Z,4.05
2017-12-08T12:29:46.759Z,3.63
2017-12-08T12:35:50.449Z,3.35
2017-12-08T12:41:53.977Z,2.94
2017-12-08T12:47:57.523Z,2.61
2017-12-08T12:54:01.135Z,2.36
2017-12-08T13:00:04.660Z,2.35
2017-12-08T13:06:08.215Z,2.49
2017-12-08T13:12:11.752Z,2.61
2017-12-08T13:18:15.282Z,2.88
2017-12-08T13:24:19.630Z,2.93
2017-12-08T13:30:23.559Z,2.73
2017-12-08T13:36:27.118Z,2.52
2017-12-08T13:42:30.656Z,2.46
2017-12-08T13:48:34.166Z,2.48
2017-12-08T13:54:55.483Z,2.47
2017-12-08T14:00:59.099Z,2.57
2017-12-08T14:07:02.671Z,2.72
2017-12-08T14:13:06.938Z,2.84
2017-12-08T14:19:10.503Z,2.87
2017-12-08T14:25:14.766Z,2.75
2017-12-08T14:31:19.517Z,2.56
2017-12-08T14:37:23.151Z,2.27
2017-12-08T14:43:26.720Z,2.02
2017-12-08T14:49:30.248Z,1.93
2017-12-08T14:55:33.896Z,1.87
2017-12-08T15:01:38.202Z,1.72
2017-12-08T15:07:41.719Z,1.69
2017-12-08T15:13:46.008Z,1.67
2017-12-08T15:19:49.519Z,1.64
2017-12-08T15:25:53.179Z,1.69
2017-12-08T15:31:56.710Z,1.58
2017-12-08T15:38:00.203Z,1.40
2017-12-08T15:44:04.491Z,1.23
2017-12-08T15:50:08.024Z,1.13
2017-12-08T15:56:12.334Z,1.01
2017-12-08T16:02:15.981Z,0.99
2017-12-08T16:08:19.981Z,1.03
2017-12-08T16:14:24.833Z,1.10
2017-12-08T16:26:43.820Z,1.17
2017-12-08T16:32:47.358Z,1.27
2017-12-08T16:38:50.890Z,1.37
2017-12-08T16:44:54.719Z,1.44
2017-12-08T16:50:58.287Z,1.52
2017-12-08T16:57:01.836Z,1.56
2017-12-08T17:03:05.374Z,1.60
2017-12-08T17:09:08.898Z,1.59
2017-12-08T17:15:12.477Z,1.57
2017-12-08T17:21:15.993Z,1.59
2017-12-08T17:27:19.598Z,1.63
2017-12-08T17:33:23.394Z,1.63
2017-12-08T17:39:27.928Z,1.61
2017-12-08T17:45:31.495Z,1.61
2017-12-08T17:51:35.039Z,1.55
2017-12-08T17:57:38.596Z,1.53
2017-12-08T18:03:42.293Z,1.60
2017-12-08T18:09:45.966Z,1.60
2017-12-08T18:15:50.265Z,1.49
2017-12-08T18:21:54.698Z,1.35
2017-12-08T18:27:58.249Z,1.26
2017-12-08T18:34:01.810Z,1.26
2017-12-08T18:40:06.443Z,1.07
2017-12-08T18:46:09.991Z,1.02
2017-12-08T18:52:13.541Z,0.92
2017-12-08T18:58:17.077Z,0.75
2017-12-08T19:04:20.628Z,0.86
2017-12-08T19:10:24.733Z,0.77
2017-12-08T19:16:28.295Z,0.69
2017-12-08T19:22:31.980Z,0.61
2017-12-08T19:28:35.630Z,0.53
2017-12-08T19:34:39.163Z,0.62
2017-12-08T19:40:42.711Z,0.65
2017-12-08T19:46:46.268Z,0.63
2017-12-08T19:52:49.859Z,0.65
2017-12-08T19:58:53.706Z,0.69
2017-12-08T20:04:57.250Z,0.72
2017-12-08T20:11:00.801Z,0.75
2017-12-08T20:17:04.364Z,0.89
2017-12-08T20:23:07.995Z,1.00
2017-12-08T20:29:11.636Z,0.95
2017-12-08T20:35:15.236Z,0.83
2017-12-08T20:41:18.788Z,0.98
2017-12-08T20:47:22.376Z,0.95
2017-12-08T20:53:26.103Z,0.98
2017-12-08T20:59:29.687Z,1.06
2017-12-08T21:05:33.262Z,1.03
2017-12-08T21:11:37.569Z,0.92
2017-12-08T21:17:41.116Z,0.78
2017-12-08T21:23:44.679Z,0.85
2017-12-08T21:29:48.236Z,0.80
2017-12-08T21:35:52.509Z,0.84
2017-12-08T21:41:56.084Z,0.82
2017-12-08T21:47:59.659Z,0.98
2017-12-08T21:54:03.184Z,1.10
2017-12-08T22:00:06.770Z,1.12
2017-12-08T22:06:10.448Z,1.12
2017-12-08T22:12:14.751Z,1.19
2017-12-08T22:18:18.289Z,1.29
2017-12-08T22:24:22.038Z,1.29
2017-12-08T22:30:25.716Z,1.30
2017-12-08T22:36:29.373Z,1.32
2017-12-08T22:42:32.992Z,1.30
2017-12-08T22:48:36.531Z,1.30
2017-12-08T22:54:40.328Z,1.19
2017-12-08T23:00:45.574Z,1.08
2017-12-08T23:06:49.200Z,1.01
2017-12-08T23:12:53.187Z,0.99
2017-12-08T23:18:56.777Z,0.92
2017-12-08T23:25:00.312Z,0.81
2017-12-08T23:31:04.032Z,0.69
2017-12-08T23:37:07.656Z,0.63
2017-12-08T23:43:11.285Z,0.59
2017-12-08T23:49:14.937Z,0.57
2017-12-08T23:55:18.725Z,0.55
